Time;durP1;ratioP1;P1;durP2;ratioP2;P2;SDS_P1;SDS_P2;PMS_P1;PMS_P2;Temp;Humidity;BMP_temperature;BMP_pressure;BME280_temperature;BME280_humidity;BME280_pressure;Samples;Min_cycle;Max_cycle;Signal;HPM_P1;HPM_P2
2022/05/12 00:06:31;;;;;;;5.68;3.90;;;17.50;53.70;;;;;;4741201;30;20234;-89
2022/05/12 05:54:59;;;;;;;7.60;3.58;;;20.40;32.40;;;;;;5061976;28;20235;-90
2022/05/12 06:00:48;;;;;;;6.35;3.25;;;20.70;32.60;;;;;;5062737;28;20228;-89
2022/05/12 06:06:46;;;;;;;5.15;2.78;;;20.90;32.80;;;;;;5064195;28;20221;-89
2022/05/12 06:16:14;;;;;;;4.97;3.10;;;21.50;29.80;;;;;;5051017;28;20283;-89
2022/05/12 06:22:24;;;;;;;4.90;2.92;;;21.50;29.80;;;;;;4988781;28;20264;-84
2022/05/12 06:24:54;;;;;;;6.03;2.83;;;21.40;30.30;;;;;;4988230;28;20228;-90
2022/05/12 06:27:36;;;;;;;8.07;3.20;;;21.40;29.80;;;;;;4990886;28;20205;-92
2022/05/12 06:30:13;;;;;;;8.20;3.20;;;21.30;29.60;;;;;;4995492;28;20271;-92
2022/05/12 06:39:31;;;;;;;4.88;2.60;;;21.30;28.70;;;;;;4993519;28;20224;-84
2022/05/12 06:45:24;;;;;;;5.53;2.85;;;21.00;30.30;;;;;;5023968;28;20268;-89
2022/05/12 06:48:26;;;;;;;4.40;2.90;;;21.10;30.60;;;;;;5005661;28;20650;-87
2022/05/12 07:04:46;;;;;;;4.03;2.63;;;22.40;28.10;;;;;;5015591;28;20234;-89
2022/05/12 07:07:13;;;;;;;5.00;2.72;;;22.50;26.00;;;;;;4965210;28;20295;-88
2022/05/12 07:26:44;;;;;;;4.32;2.85;;;23.10;25.90;;;;;;5004168;28;20539;-93
2022/05/12 07:29:14;;;;;;;5.57;3.10;;;23.60;26.00;;;;;;5004959;28;20230;-90
2022/05/12 07:31:54;;;;;;;5.97;2.67;;;23.70;25.40;;;;;;5028238;28;20207;-91
2022/05/12 07:34:42;;;;;;;7.00;3.03;;;23.50;25.60;;;;;;5065121;28;20233;-90
2022/05/12 07:37:18;;;;;;;4.18;3.00;;;23.20;25.40;;;;;;5012632;28;20203;-90
2022/05/12 07:40:13;;;;;;;3.85;2.75;;;23.00;25.60;;;;;;5016834;28;20207;-89
2022/05/12 07:42:40;;;;;;;9.00;2.80;;;22.90;26.00;;;;;;5017256;28;20581;-91
2022/05/12 07:45:08;;;;;;;4.43;2.80;;;23.00;24.20;;;;;;5010192;28;20215;-90
2022/05/12 08:13:48;;;;;;;4.50;2.97;;;24.40;23.40;;;;;;5052155;28;20275;-90
2022/05/12 08:19:44;;;;;;;5.05;3.00;;;24.70;22.10;;;;;;5037212;28;20284;-91
2022/05/12 08:22:18;;;;;;;7.35;3.10;;;24.60;22.90;;;;;;5007481;28;20196;-92
2022/05/12 08:28:20;;;;;;;4.93;3.30;;;24.40;23.90;;;;;;5011745;28;20591;-92
2022/05/12 08:34:13;;;;;;;10.38;3.80;;;24.20;23.50;;;;;;5012999;28;20230;-90
2022/05/12 08:36:42;;;;;;;11.32;3.60;;;24.30;25.00;;;;;;5008060;28;20287;-90
2022/05/12 08:39:09;;;;;;;6.00;3.60;;;24.50;24.30;;;;;;5014668;28;20319;-88
2022/05/12 08:41:43;;;;;;;7.15;3.33;;;24.90;22.50;;;;;;5021085;28;20217;-88
2022/05/12 08:44:41;;;;;;;7.40;3.40;;;25.60;21.40;;;;;;5018402;28;20271;-87
2022/05/12 08:47:14;;;;;;;5.35;3.05;;;26.30;20.00;;;;;;4997858;28;20227;-82
2022/05/12 08:49:44;;;;;;;6.75;3.60;;;27.70;17.50;;;;;;5002495;28;20716;-86
2022/05/12 08:52:23;;;;;;;7.70;3.33;;;28.80;16.00;;;;;;5012867;28;20213;-88
2022/05/12 08:54:58;;;;;;;6.15;3.50;;;29.90;14.20;;;;;;4997765;28;20242;-89
2022/05/12 08:57:34;;;;;;;10.88;3.65;;;30.70;13.40;;;;;;5013113;28;20208;-87
2022/05/12 09:00:39;;;;;;;5.47;3.58;;;31.40;12.70;;;;;;5002805;28;20227;-87
2022/05/12 09:03:41;;;;;;;6.82;3.95;;;31.60;11.50;;;;;;4991768;28;20649;-88
2022/05/12 09:06:33;;;;;;;4.45;4.05;;;32.60;10.20;;;;;;5008411;28;20234;-89
2022/05/12 09:09:33;;;;;;;7.47;3.70;;;33.70;8.80;;;;;;5022398;28;20202;-89
2022/05/12 09:12:08;;;;;;;7.28;3.83;;;34.20;8.60;;;;;;5006993;28;20229;-90
2022/05/12 09:14:42;;;;;;;4.28;3.40;;;33.90;7.70;;;;;;5000803;28;20702;-90
2022/05/12 09:17:21;;;;;;;5.07;4.00;;;34.70;7.20;;;;;;4996496;28;20212;-91
2022/05/12 09:20:01;;;;;;;5.05;3.90;;;34.70;7.10;;;;;;5015796;28;20262;-89
2022/05/12 09:22:30;;;;;;;7.72;4.28;;;34.80;6.70;;;;;;5017229;28;20203;-82
2022/05/12 09:25:02;;;;;;;7.47;3.92;;;35.40;6.50;;;;;;5011947;28;20241;-90
2022/05/12 09:27:32;;;;;;;6.15;4.28;;;35.40;6.70;;;;;;5003418;28;20700;-89
2022/05/12 09:30:02;;;;;;;7.50;4.00;;;35.60;5.90;;;;;;5023199;28;20231;-88
2022/05/12 09:32:32;;;;;;;10.25;4.50;;;35.60;5.70;;;;;;5005380;28;20204;-89
2022/05/12 09:35:21;;;;;;;4.90;3.88;;;34.80;6.30;;;;;;5005122;28;20261;-89
2022/05/12 09:37:49;;;;;;;8.85;3.95;;;35.00;7.10;;;;;;5006352;28;20237;-87
2022/05/12 09:40:35;;;;;;;4.60;4.20;;;34.80;7.40;;;;;;5004315;28;20235;-87
2022/05/12 09:43:19;;;;;;;6.82;4.30;;;34.80;7.40;;;;;;4993530;28;20618;-89
2022/05/12 09:46:03;;;;;;;8.35;4.07;;;34.80;7.30;;;;;;5001798;28;20227;-85
2022/05/12 09:48:32;;;;;;;5.28;4.40;;;34.30;9.20;;;;;;5000242;28;20666;-88
2022/05/12 09:51:19;;;;;;;12.00;4.40;;;34.60;9.30;;;;;;4992363;28;20406;-88
2022/05/12 09:53:49;;;;;;;7.97;4.35;;;35.10;8.50;;;;;;4995825;28;20227;-82
2022/05/12 09:56:32;;;;;;;6.38;4.00;;;34.70;7.20;;;;;;5024367;28;20353;-83
2022/05/12 09:59:18;;;;;;;10.15;4.25;;;33.30;9.70;;;;;;5008908;28;20208;-82
2022/05/12 10:01:52;;;;;;;10.60;4.20;;;33.30;8.70;;;;;;5007498;28;20203;-85
2022/05/12 10:10:25;;;;;;;7.57;4.10;;;32.40;10.60;;;;;;5009274;28;20593;-81
2022/05/12 10:13:05;;;;;;;10.45;3.90;;;33.20;9.20;;;;;;5000167;28;20205;-81
2022/05/12 10:15:38;;;;;;;6.70;3.92;;;33.50;11.20;;;;;;5008539;28;20234;-82
2022/05/12 10:18:20;;;;;;;7.40;4.03;;;33.50;8.80;;;;;;5008559;28;20204;-83
2022/05/12 10:21:09;;;;;;;4.07;3.67;;;33.10;10.90;;;;;;5009295;28;20230;-85
2022/05/12 10:24:03;;;;;;;5.93;3.90;;;33.60;8.80;;;;;;5011533;28;20285;-82
2022/05/12 10:26:38;;;;;;;6.75;3.60;;;34.60;8.50;;;;;;5008737;28;20222;-85
2022/05/12 10:29:25;;;;;;;4.18;3.60;;;34.40;8.60;;;;;;4991936;28;20194;-86
2022/05/12 10:32:15;;;;;;;6.25;4.28;;;34.60;8.20;;;;;;5009822;28;20199;-88
2022/05/12 10:38:32;;;;;;;10.85;3.92;;;34.10;7.90;;;;;;4967989;28;20211;-94
2022/05/12 10:41:06;;;;;;;3.88;3.50;;;34.30;7.00;;;;;;4956005;28;20695;-91
2022/05/12 10:44:07;;;;;;;6.20;3.58;;;33.50;7.00;;;;;;4969433;28;20205;-89
2022/05/12 10:46:46;;;;;;;7.60;3.50;;;33.00;8.60;;;;;;4978043;28;20318;-88
2022/05/12 10:49:46;;;;;;;9.32;3.58;;;33.00;8.60;;;;;;4971706;28;20239;-90
2022/05/12 10:52:29;;;;;;;10.70;3.75;;;32.00;8.00;;;;;;4974885;28;20294;-85
2022/05/12 10:55:20;;;;;;;6.53;3.80;;;31.60;9.70;;;;;;4959254;28;20250;-89
2022/05/12 10:57:58;;;;;;;7.82;3.70;;;32.10;9.30;;;;;;5013469;28;20684;-88
2022/05/12 11:00:55;;;;;;;6.75;3.45;;;32.50;8.30;;;;;;5008078;28;20219;-89
2022/05/12 11:03:39;;;;;;;4.63;3.55;;;31.20;10.10;;;;;;5013490;28;20642;-90
2022/05/12 11:06:33;;;;;;;8.45;3.30;;;30.80;11.20;;;;;;5009144;28;20228;-85
2022/05/12 11:09:10;;;;;;;6.75;3.28;;;29.80;12.40;;;;;;5021501;28;20196;-87
2022/05/12 11:11:42;;;;;;;4.95;3.17;;;29.50;12.90;;;;;;5009392;28;20943;-83
2022/05/12 11:14:38;;;;;;;5.57;3.47;;;29.10;14.90;;;;;;5022773;28;20230;-83
2022/05/12 11:17:17;;;;;;;6.85;3.35;;;28.80;16.00;;;;;;5011848;28;20195;-88
2022/05/12 11:19:59;;;;;;;4.82;3.08;;;28.70;15.30;;;;;;5010355;28;20226;-87
2022/05/12 11:22:44;;;;;;;7.68;3.35;;;28.50;15.90;;;;;;5003996;28;20207;-83
2022/05/12 11:25:48;;;;;;;6.50;3.25;;;28.40;15.90;;;;;;5007409;28;20239;-85
2022/05/12 11:31:24;;;;;;;4.97;3.05;;;27.80;15.50;;;;;;5008767;28;20284;-85
2022/05/12 11:34:05;;;;;;;3.67;3.33;;;27.70;15.50;;;;;;5018786;28;20227;-87
2022/05/12 11:37:23;;;;;;;4.60;3.40;;;27.70;18.10;;;;;;5009880;28;20226;-88
2022/05/12 11:40:04;;;;;;;5.78;3.33;;;27.70;15.80;;;;;;5009981;28;20601;-87
2022/05/12 11:45:47;;;;;;;8.85;3.50;;;27.80;17.50;;;;;;5013536;28;20229;-86
2022/05/12 11:48:34;;;;;;;5.90;3.03;;;27.50;16.70;;;;;;5009407;28;20222;-83
2022/05/12 11:51:24;;;;;;;5.20;3.13;;;27.80;17.50;;;;;;5003838;28;20231;-82
2022/05/12 11:53:58;;;;;;;5.68;3.40;;;28.00;15.70;;;;;;5004800;28;20223;-86
2022/05/12 11:56:51;;;;;;;6.78;3.38;;;28.10;15.70;;;;;;5014527;28;20251;-86
2022/05/12 11:59:53;;;;;;;5.38;3.40;;;27.90;15.60;;;;;;5005759;28;20243;-85
2022/05/12 12:02:53;;;;;;;7.93;3.60;;;28.00;16.60;;;;;;5035749;28;20210;-85
2022/05/12 12:05:59;;;;;;;9.00;3.58;;;27.70;17.10;;;;;;5013883;28;20227;-87
2022/05/12 12:08:46;;;;;;;4.90;3.38;;;27.70;18.20;;;;;;5008195;28;20223;-86
2022/05/12 12:11:26;;;;;;;6.63;3.80;;;27.70;17.30;;;;;;5003846;28;20601;-87
2022/05/12 12:13:58;;;;;;;8.90;3.83;;;27.50;17.00;;;;;;5015204;28;20203;-84
2022/05/12 12:17:03;;;;;;;9.57;3.88;;;27.30;17.80;;;;;;5057612;28;20669;-85
2022/05/12 12:19:55;;;;;;;6.70;3.75;;;27.20;18.10;;;;;;5013646;28;20237;-84
2022/05/12 12:22:41;;;;;;;6.40;3.33;;;27.20;18.00;;;;;;5014601;28;20203;-84
2022/05/12 12:25:30;;;;;;;7.75;3.60;;;27.70;17.70;;;;;;5018723;28;20247;-83
2022/05/12 12:28:24;;;;;;;4.80;3.35;;;27.80;17.80;;;;;;5016274;28;20221;-83
2022/05/12 12:31:04;;;;;;;7.38;3.67;;;27.70;15.70;;;;;;5014213;28;20231;-84
2022/05/12 12:34:12;;;;;;;11.80;4.03;;;27.60;17.40;;;;;;5019398;28;20203;-81
2022/05/12 12:37:05;;;;;;;9.05;4.07;;;27.40;16.90;;;;;;5015887;28;20219;-83
2022/05/12 12:39:38;;;;;;;5.57;3.42;;;27.10;18.80;;;;;;5013568;28;20248;-81
2022/05/12 12:42:39;;;;;;;8.10;3.78;;;26.80;17.80;;;;;;5012660;28;20696;-80
2022/05/12 12:45:22;;;;;;;10.23;3.75;;;26.30;19.20;;;;;;5013485;28;20234;-84
2022/05/12 12:47:55;;;;;;;5.88;3.67;;;26.30;20.00;;;;;;5017319;28;20206;-85
2022/05/12 12:50:36;;;;;;;7.20;4.00;;;26.40;20.00;;;;;;5014597;28;20231;-82
2022/05/12 12:53:03;;;;;;;10.68;3.60;;;26.10;20.00;;;;;;5024467;28;20217;-84
2022/05/12 12:58:42;;;;;;;7.78;3.75;;;26.00;20.00;;;;;;5018626;28;20225;-85
2022/05/12 13:01:45;;;;;;;7.57;4.05;;;26.20;19.80;;;;;;5002542;28;20601;-81
2022/05/12 13:04:25;;;;;;;11.30;3.60;;;26.50;19.60;;;;;;5016042;28;20732;-85
2022/05/12 13:06:57;;;;;;;7.20;3.72;;;26.50;19.40;;;;;;5013460;28;20211;-86
2022/05/12 13:09:27;;;;;;;6.15;3.67;;;26.40;18.50;;;;;;5011711;28;20235;-86
2022/05/12 13:12:09;;;;;;;9.85;3.67;;;26.40;19.20;;;;;;5007870;28;20200;-85
2022/05/12 13:14:37;;;;;;;4.70;3.30;;;26.60;19.60;;;;;;5000496;28;20239;-82
2022/05/12 13:17:20;;;;;;;9.38;3.72;;;26.80;19.50;;;;;;5006654;28;20674;-82
2022/05/12 13:19:57;;;;;;;7.95;3.97;;;26.90;19.50;;;;;;5009848;28;20235;-84
2022/05/12 13:22:36;;;;;;;7.10;3.75;;;27.00;18.20;;;;;;5024201;28;20568;-84
2022/05/12 13:25:09;;;;;;;3.55;3.25;;;27.10;18.60;;;;;;5001985;28;20227;-81
2022/05/12 13:27:43;;;;;;;6.82;3.80;;;27.10;18.20;;;;;;5011218;28;20203;-81
2022/05/12 13:30:16;;;;;;;6.55;3.80;;;26.90;17.80;;;;;;5016263;28;20223;-81
2022/05/12 13:32:50;;;;;;;6.40;3.58;;;26.60;18.60;;;;;;5016446;28;20235;-83
2022/05/12 13:35:22;;;;;;;3.80;3.50;;;26.30;18.50;;;;;;5007454;28;20231;-81
2022/05/12 13:38:04;;;;;;;7.15;3.95;;;26.30;18.80;;;;;;5012359;28;20678;-82
2022/05/12 13:40:50;;;;;;;7.80;3.70;;;26.50;19.50;;;;;;5007050;28;20227;-82
2022/05/12 13:43:24;;;;;;;6.30;3.55;;;26.80;18.90;;;;;;4999265;28;20206;-80
2022/05/12 13:46:07;;;;;;;7.43;3.92;;;26.90;17.90;;;;;;5012874;28;20231;-83
2022/05/12 13:48:47;;;;;;;9.77;4.05;;;26.90;18.70;;;;;;5016741;28;20215;-78
2022/05/12 13:51:49;;;;;;;4.82;3.75;;;26.90;19.50;;;;;;5013286;28;20237;-81
2022/05/12 13:54:33;;;;;;;9.23;3.92;;;26.90;18.90;;;;;;5036657;28;20230;-80
2022/05/12 13:57:31;;;;;;;8.85;3.70;;;26.60;18.10;;;;;;5012321;28;20208;-80
2022/05/12 14:00:00;;;;;;;8.20;4.07;;;26.50;19.20;;;;;;5013306;28;20249;-82
2022/05/12 14:02:33;;;;;;;6.18;3.60;;;26.50;18.90;;;;;;5015626;28;20290;-82
2022/05/12 14:05:04;;;;;;;8.73;3.50;;;26.50;18.40;;;;;;5010514;28;20227;-83
2022/05/12 14:08:12;;;;;;;11.40;3.92;;;26.20;18.90;;;;;;5015439;28;20207;-84
2022/05/12 14:10:46;;;;;;;6.32;3.90;;;26.00;19.20;;;;;;5011426;28;20230;-81
2022/05/12 14:19:32;;;;;;;6.88;3.53;;;26.20;17.60;;;;;;5009337;28;20284;-85
2022/05/12 14:22:05;;;;;;;7.15;3.83;;;26.20;18.20;;;;;;5014633;28;20208;-81
2022/05/12 14:24:34;;;;;;;7.40;4.03;;;26.40;18.80;;;;;;5010435;28;20253;-82
2022/05/12 14:27:11;;;;;;;15.57;4.55;;;26.40;19.10;;;;;;5021371;28;20203;-82
2022/05/12 14:29:48;;;;;;;4.78;3.70;;;26.40;18.50;;;;;;5022191;28;20287;-84
2022/05/12 14:32:19;;;;;;;4.97;3.47;;;26.50;19.00;;;;;;5024608;28;20187;-83
2022/05/12 14:34:51;;;;;;;6.65;3.38;;;26.50;18.20;;;;;;5020667;28;20241;-82
2022/05/12 14:37:19;;;;;;;4.68;3.40;;;26.50;17.50;;;;;;5021106;28;20210;-82
2022/05/12 14:39:46;;;;;;;6.95;3.80;;;26.60;17.30;;;;;;5020626;28;20223;-84
2022/05/12 14:42:26;;;;;;;7.88;3.72;;;26.50;18.20;;;;;;5020276;28;20714;-82
2022/05/12 14:44:54;;;;;;;5.60;3.85;;;26.20;18.90;;;;;;5016831;28;20254;-83
2022/05/12 14:47:24;;;;;;;6.85;3.92;;;26.10;19.10;;;;;;5010900;28;20753;-79
2022/05/12 14:49:54;;;;;;;6.53;3.83;;;26.20;18.80;;;;;;5002344;28;20250;-79
2022/05/12 14:52:24;;;;;;;5.35;3.50;;;26.30;18.20;;;;;;5008633;28;20206;-79
2022/05/12 14:55:00;;;;;;;6.25;3.80;;;26.30;17.80;;;;;;5006115;28;20235;-79
2022/05/12 14:57:32;;;;;;;4.80;3.60;;;26.30;18.40;;;;;;5012420;28;20207;-79
2022/05/12 15:00:00;;;;;;;6.00;3.88;;;26.40;18.40;;;;;;5012799;28;20699;-79
2022/05/12 15:02:31;;;;;;;4.78;3.28;;;26.40;16.70;;;;;;5006175;28;20214;-79
2022/05/12 15:05:08;;;;;;;4.95;3.60;;;26.50;17.00;;;;;;5008564;28;20732;-79
2022/05/12 15:07:36;;;;;;;6.35;3.35;;;26.50;16.90;;;;;;5016030;28;20217;-78
2022/05/12 15:10:15;;;;;;;6.20;3.67;;;26.50;16.70;;;;;;5006292;28;20234;-79
2022/05/12 15:12:44;;;;;;;6.07;3.53;;;26.40;16.80;;;;;;5000658;28;20285;-78
2022/05/12 15:15:19;;;;;;;5.15;3.53;;;26.40;17.90;;;;;;5000173;28;20602;-79
2022/05/12 15:17:49;;;;;;;6.10;3.53;;;26.30;17.30;;;;;;5015948;28;20214;-79
2022/05/12 15:20:36;;;;;;;4.00;3.60;;;26.10;17.70;;;;;;5002805;28;20227;-78
2022/05/12 15:23:03;;;;;;;6.22;3.67;;;26.10;17.90;;;;;;5018687;28;20222;-78
2022/05/12 15:25:30;;;;;;;4.82;3.85;;;26.10;17.40;;;;;;5007833;28;20231;-78
2022/05/12 15:27:58;;;;;;;6.18;3.55;;;26.10;17.20;;;;;;4998651;28;20582;-78
2022/05/12 15:30:30;;;;;;;9.82;3.72;;;26.00;17.20;;;;;;5013877;28;20299;-82
2022/05/12 15:33:00;;;;;;;8.07;3.55;;;26.00;18.20;;;;;;5007539;28;20557;-81
2022/05/12 15:35:28;;;;;;;6.00;3.40;;;26.10;17.40;;;;;;5005207;28;20249;-82
2022/05/12 15:37:55;;;;;;;4.55;3.50;;;26.10;17.50;;;;;;5030240;28;20192;-84
2022/05/12 15:40:30;;;;;;;4.82;3.80;;;26.10;17.90;;;;;;5024746;28;20238;-82
2022/05/12 15:43:02;;;;;;;8.15;3.55;;;26.00;17.60;;;;;;5015302;28;20207;-82
2022/05/12 15:45:28;;;;;;;6.75;3.72;;;26.10;18.00;;;;;;5023159;28;20235;-83
2022/05/12 15:48:14;;;;;;;6.07;3.63;;;26.00;18.80;;;;;;5005806;28;20204;-82
2022/05/12 15:50:44;;;;;;;8.82;3.70;;;26.10;18.40;;;;;;5008924;28;20242;-81
2022/05/12 15:53:15;;;;;;;6.90;3.33;;;26.00;18.10;;;;;;5010931;28;20661;-82
2022/05/12 15:55:48;;;;;;;5.03;3.47;;;25.90;18.60;;;;;;5021414;28;20271;-84
2022/05/12 15:58:31;;;;;;;10.75;4.10;;;25.70;18.30;;;;;;5010484;28;20211;-82
2022/05/12 16:01:13;;;;;;;4.53;3.35;;;25.80;17.70;;;;;;5010006;28;20231;-82
2022/05/12 16:03:42;;;;;;;6.03;3.58;;;25.70;19.00;;;;;;5022082;28;20209;-81
2022/05/12 16:06:09;;;;;;;12.27;4.63;;;25.70;19.50;;;;;;5027571;28;20238;-82
2022/05/12 16:08:54;;;;;;;7.35;3.50;;;25.60;19.70;;;;;;5030733;28;20609;-82
2022/05/12 16:14:41;;;;;;;5.72;3.90;;;25.40;18.50;;;;;;4960447;28;20256;-82
2022/05/12 16:17:21;;;;;;;4.80;4.00;;;25.40;19.40;;;;;;4951664;28;20229;-83
2022/05/12 16:20:00;;;;;;;8.50;4.10;;;25.40;18.50;;;;;;4952367;28;20246;-82
2022/05/12 16:22:42;;;;;;;5.90;3.67;;;25.30;19.30;;;;;;4960844;28;20225;-81
2022/05/12 16:25:10;;;;;;;5.50;4.00;;;25.30;19.50;;;;;;4953208;28;20607;-81
2022/05/12 16:27:38;;;;;;;6.90;4.10;;;25.20;19.00;;;;;;4960565;28;20212;-81
2022/05/12 16:30:23;;;;;;;7.75;6.07;;;25.20;19.70;;;;;;4953856;28;20233;-82
2022/05/12 16:32:57;;;;;;;5.63;4.75;;;25.20;19.60;;;;;;4958558;28;20244;-86
2022/05/12 16:35:24;;;;;;;8.60;4.80;;;25.10;19.70;;;;;;4966301;28;20245;-88
2022/05/12 16:38:01;;;;;;;8.82;4.15;;;25.00;19.80;;;;;;4955511;28;20217;-85
2022/05/12 16:40:37;;;;;;;5.97;3.50;;;24.90;19.60;;;;;;4973401;28;20715;-82
2022/05/12 16:43:12;;;;;;;6.95;3.78;;;24.90;20.40;;;;;;4967309;28;20212;-82
2022/05/12 16:45:42;;;;;;;6.22;3.63;;;24.80;20.90;;;;;;4958886;28;20236;-83
2022/05/12 16:48:15;;;;;;;7.53;4.20;;;24.70;21.10;;;;;;4963226;28;20212;-82
2022/05/12 16:51:06;;;;;;;4.97;3.88;;;24.60;21.60;;;;;;4992768;28;20232;-84
2022/05/12 16:53:36;;;;;;;6.78;3.55;;;24.40;21.30;;;;;;5020371;28;20199;-84
2022/05/12 16:56:06;;;;;;;7.07;3.88;;;24.30;22.00;;;;;;5008541;28;20259;-85
2022/05/12 16:58:42;;;;;;;6.85;3.55;;;24.20;22.10;;;;;;5021354;28;20230;-83
2022/05/12 17:01:14;;;;;;;7.18;3.78;;;24.20;21.70;;;;;;5025497;28;20615;-84
2022/05/12 17:03:54;;;;;;;6.97;4.20;;;24.10;22.40;;;;;;5018896;28;20238;-84
2022/05/12 17:06:33;;;;;;;6.00;4.05;;;24.00;22.30;;;;;;5003833;28;20278;-83
2022/05/12 17:09:12;;;;;;;8.80;4.22;;;24.00;22.80;;;;;;5025069;28;20215;-83
2022/05/12 17:11:54;;;;;;;5.65;3.78;;;24.00;23.40;;;;;;5012415;28;20261;-84
2022/05/12 17:14:31;;;;;;;5.90;3.72;;;23.90;23.50;;;;;;5007290;28;20323;-84
2022/05/12 17:17:00;;;;;;;7.40;4.00;;;23.90;23.50;;;;;;5023496;28;20226;-83
2022/05/12 17:19:37;;;;;;;10.90;4.28;;;23.80;23.70;;;;;;5020573;28;20239;-83
2022/05/12 17:22:14;;;;;;;8.65;3.80;;;23.90;23.10;;;;;;5021686;28;20646;-88
2022/05/12 17:24:54;;;;;;;6.65;4.13;;;23.90;23.60;;;;;;4988968;28;20238;-91
2022/05/12 17:27:56;;;;;;;4.57;4.03;;;23.80;23.50;;;;;;5035174;28;20203;-91
2022/05/12 17:30:25;;;;;;;6.25;3.92;;;23.70;23.50;;;;;;5020244;28;20234;-91
2022/05/12 17:39:29;;;;;;;6.00;4.63;;;23.40;24.40;;;;;;4935910;28;20234;-93
2022/05/12 17:43:11;;;;;;;7.78;4.22;;;23.40;25.30;;;;;;4979200;28;20228;-92
2022/05/12 17:52:57;;;;;;;10.65;5.50;;;23.10;26.20;;;;;;4949818;29;20222;-91
2022/05/12 18:38:28;;;;;;;8.60;5.65;;;22.20;33.90;;;;;;5043867;28;20267;-89
2022/05/12 18:41:13;;;;;;;6.47;5.40;;;22.00;34.80;;;;;;5024436;28;20254;-89
2022/05/12 18:44:31;;;;;;;8.05;5.60;;;21.90;34.60;;;;;;5029106;28;20198;-90
2022/05/12 18:50:37;;;;;;;10.63;6.13;;;21.80;36.60;;;;;;5044004;28;20233;-89
2022/05/12 19:00:20;;;;;;;8.25;6.28;;;21.70;38.00;;;;;;5085983;28;20226;-89
2022/05/12 19:03:38;;;;;;;8.32;6.68;;;21.70;37.80;;;;;;5084162;28;20196;-89
2022/05/12 19:10:03;;;;;;;9.73;6.60;;;21.60;39.20;;;;;;5075888;28;20244;-89
2022/05/12 19:23:29;;;;;;;13.52;7.53;;;21.50;41.40;;;;;;5040458;28;20185;-88
2022/05/12 19:26:16;;;;;;;9.98;6.20;;;21.40;43.20;;;;;;5008753;28;20227;-88
2022/05/12 19:29:06;;;;;;;9.93;6.82;;;21.40;43.40;;;;;;5044631;28;20199;-89
2022/05/12 19:31:35;;;;;;;10.10;6.50;;;21.40;44.00;;;;;;5024017;28;20204;-88
2022/05/12 19:34:02;;;;;;;9.45;6.65;;;21.40;43.80;;;;;;5022515;28;20255;-88
2022/05/12 19:43:10;;;;;;;10.00;6.30;;;21.40;44.10;;;;;;5011093;28;20294;-90
2022/05/12 19:45:42;;;;;;;11.77;5.55;;;21.40;42.20;;;;;;5020512;28;20277;-90
2022/05/12 20:20:53;;;;;;;8.73;5.07;;;19.00;80.90;;;;;;4968295;28;20236;-88
2022/05/12 23:38:41;;;;;;;8.23;6.45;;;16.70;99.90;;;;;;5025164;28;20226;-89
